Time;durP1;ratioP1;P1;durP2;ratioP2;P2;SDS_P1;SDS_P2;PMS_P1;PMS_P2;Temp;Humidity;BMP_temperature;BMP_pressure;BME280_temperature;BME280_humidity;BME280_pressure;Samples;Min_cycle;Max_cycle;Signal;HPM_P1;HPM_P2
2023/06/20 00:01:43;;;;;;;11.17;9.43;;;23.50;69.90;;;26.09;48.06;101322.03;5045614;28;20198;-57
2023/06/20 00:04:10;;;;;;;10.43;9.53;;;23.40;70.10;;;26.04;48.31;101331.97;5041871;28;20726;-56
2023/06/20 00:06:37;;;;;;;12.07;10.77;;;23.40;70.30;;;25.98;48.39;101338.44;5036260;28;20197;-58
2023/06/20 00:09:04;;;;;;;13.60;12.20;;;23.30;70.60;;;25.91;48.01;101337.84;5035498;28;20218;-58
2023/06/20 00:11:31;;;;;;;13.00;11.70;;;23.20;70.80;;;25.84;48.73;101335.38;5039690;28;20281;-54
2023/06/20 00:13:57;;;;;;;12.93;11.63;;;23.20;71.00;;;25.79;48.73;101340.75;5055452;28;20263;-59
2023/06/20 00:16:24;;;;;;;12.40;11.20;;;23.10;71.20;;;25.74;48.45;101343.41;5055123;28;20217;-55
2023/06/20 00:18:56;;;;;;;13.30;11.90;;;23.00;71.60;;;25.69;48.65;101345.25;5038317;28;20212;-59
2023/06/20 00:21:25;;;;;;;15.90;13.23;;;22.90;71.90;;;25.64;49.38;101337.13;5055370;28;20601;-61
2023/06/20 00:23:53;;;;;;;13.07;11.87;;;22.90;72.30;;;25.60;49.01;101341.44;5055261;28;20640;-59
2023/06/20 00:26:21;;;;;;;12.17;11.07;;;22.80;72.40;;;25.56;49.09;101335.72;5055366;28;20610;-58
2023/06/20 00:28:50;;;;;;;14.07;12.67;;;22.80;72.70;;;25.53;49.20;101337.06;5035882;28;20194;-55
2023/06/20 00:31:17;;;;;;;13.50;12.17;;;22.80;72.90;;;25.52;49.81;101346.22;5035182;28;20202;-60
2023/06/20 00:33:44;;;;;;;15.60;14.17;;;22.80;72.90;;;25.49;49.78;101332.44;5034737;28;20222;-59
2023/06/20 00:36:12;;;;;;;11.97;10.77;;;22.70;73.00;;;25.44;49.51;101333.22;5034716;28;20214;-58
2023/06/20 00:38:39;;;;;;;12.57;11.37;;;22.70;73.00;;;25.40;50.04;101328.56;5035183;28;20268;-57
2023/06/20 00:41:06;;;;;;;14.53;13.03;;;22.60;73.00;;;25.37;50.00;101327.19;5044945;28;20273;-59
2023/06/20 00:43:33;;;;;;;12.77;11.47;;;22.60;73.10;;;25.32;50.17;101324.47;5054672;28;20284;-57
2023/06/20 00:46:00;;;;;;;12.50;11.20;;;22.60;73.20;;;25.32;49.55;101329.84;5054773;28;20328;-59
2023/06/20 00:48:27;;;;;;;11.93;10.73;;;22.50;73.20;;;25.33;49.81;101331.50;5039522;28;20600;-57
2023/06/20 00:50:55;;;;;;;14.10;11.77;;;22.50;73.30;;;25.34;49.54;101322.31;5035156;28;20725;-56
2023/06/20 00:53:23;;;;;;;11.73;10.53;;;22.60;73.20;;;25.35;49.74;101323.94;5038404;28;20297;-59
2023/06/20 00:55:51;;;;;;;13.60;12.03;;;22.60;73.00;;;25.35;49.66;101323.94;5054582;28;20682;-59
2023/06/20 00:58:18;;;;;;;13.33;11.17;;;22.60;72.80;;;25.33;49.56;101315.31;5049307;28;20224;-55
2023/06/20 01:00:45;;;;;;;11.50;10.33;;;22.60;72.60;;;25.32;49.42;101329.03;5054565;28;20272;-58
2023/06/20 01:03:13;;;;;;;13.67;12.10;;;22.50;72.30;;;25.28;49.17;101320.66;5054288;28;20272;-56
2023/06/20 01:05:51;;;;;;;12.63;10.20;;;22.50;72.30;;;25.23;49.01;101320.63;5054656;28;20216;-58
2023/06/20 01:08:33;;;;;;;12.30;11.03;;;22.40;72.40;;;25.17;49.58;101320.84;5039966;28;20190;-59
2023/06/20 01:11:09;;;;;;;12.50;10.70;;;22.40;72.50;;;25.14;49.61;101322.16;5034232;28;20551;-56
2023/06/20 01:13:48;;;;;;;11.90;10.80;;;22.40;72.30;;;25.10;49.38;101326.44;5034341;28;20198;-59
2023/06/20 01:16:29;;;;;;;12.23;10.93;;;22.30;72.40;;;25.08;49.13;101323.16;5046640;28;20221;-59
2023/06/20 01:19:11;;;;;;;11.83;10.67;;;22.40;72.70;;;25.09;49.28;101321.28;5035089;28;20206;-58
2023/06/20 01:21:46;;;;;;;11.50;10.40;;;22.40;72.60;;;25.07;48.86;101316.16;5034644;28;20297;-59
2023/06/20 01:24:23;;;;;;;11.27;10.17;;;22.40;72.60;;;25.07;49.15;101321.56;5034199;28;20210;-58
2023/06/20 01:27:01;;;;;;;14.87;11.00;;;22.40;72.40;;;25.05;49.40;101334.47;5034554;28;20186;-56
2023/06/20 01:29:36;;;;;;;11.87;10.73;;;22.30;72.40;;;25.06;48.96;101329.88;5034351;28;20194;-55
2023/06/20 01:32:13;;;;;;;12.40;11.10;;;22.30;72.40;;;25.06;49.32;101330.69;5034278;28;20186;-58
2023/06/20 01:34:48;;;;;;;12.63;11.40;;;22.30;72.40;;;25.06;48.94;101324.50;5034052;28;20236;-58
2023/06/20 01:37:20;;;;;;;12.50;11.30;;;22.30;72.30;;;25.05;49.60;101323.69;5038461;28;20190;-58
2023/06/20 01:39:56;;;;;;;12.63;11.33;;;22.30;72.40;;;25.06;49.55;101324.50;5054271;28;20185;-56
2023/06/20 01:42:26;;;;;;;12.20;11.10;;;22.30;72.40;;;25.05;48.68;101321.00;5053512;28;20212;-56
2023/06/20 01:44:59;;;;;;;11.03;9.90;;;22.30;72.30;;;25.02;48.77;101318.00;5053603;28;20256;-56
2023/06/20 01:47:31;;;;;;;12.20;10.93;;;22.30;72.50;;;25.00;49.57;101325.53;5047728;28;20198;-59
2023/06/20 01:50:03;;;;;;;12.73;11.43;;;22.30;72.60;;;24.98;49.24;101325.78;5041066;28;20197;-58
2023/06/20 01:52:32;;;;;;;13.17;11.87;;;22.30;72.50;;;24.94;48.85;101327.34;5053562;28;20289;-55
2023/06/20 01:55:04;;;;;;;12.13;10.93;;;22.20;72.30;;;24.91;49.35;101327.06;5052144;28;20244;-57
2023/06/20 01:57:34;;;;;;;12.87;11.20;;;22.20;72.50;;;24.88;49.25;101323.00;5046290;28;20247;-56
2023/06/20 02:00:08;;;;;;;12.27;11.27;;;22.20;72.80;;;24.87;49.46;101315.97;5053557;28;20201;-58
2023/06/20 02:02:36;;;;;;;13.20;11.80;;;22.10;72.90;;;24.84;49.65;101311.91;5053814;28;20218;-57
2023/06/20 02:05:07;;;;;;;12.37;11.07;;;22.10;73.10;;;24.84;49.64;101311.09;5052832;28;20209;-58
2023/06/20 02:07:36;;;;;;;13.93;12.17;;;22.10;73.20;;;24.82;49.63;101308.66;5041140;28;20191;-54
2023/06/20 02:10:06;;;;;;;14.13;12.73;;;22.10;73.30;;;24.81;49.74;101311.59;5033474;28;20233;-57
2023/06/20 02:12:35;;;;;;;12.17;11.07;;;22.10;73.50;;;24.81;49.72;101311.59;5034075;28;20268;-57
2023/06/20 02:15:04;;;;;;;15.00;12.47;;;22.10;73.50;;;24.81;49.73;101300.84;5043471;28;20297;-56
2023/06/20 02:17:33;;;;;;;14.83;12.97;;;22.10;73.60;;;24.77;49.62;101305.91;5052883;28;20194;-58
2023/06/20 02:20:01;;;;;;;14.37;12.93;;;22.00;73.40;;;24.73;50.40;101299.38;5053507;28;20190;-55
2023/06/20 02:22:30;;;;;;;13.13;11.37;;;22.00;73.80;;;24.72;50.30;101302.34;5052175;28;20244;-58
2023/06/20 02:25:06;;;;;;;13.43;11.63;;;22.00;74.00;;;24.71;49.99;101295.31;5052921;28;20544;-55
2023/06/20 02:27:35;;;;;;;13.80;12.57;;;22.00;74.10;;;24.72;50.61;101302.34;5033949;28;20225;-57
2023/06/20 02:30:06;;;;;;;14.33;12.93;;;22.00;74.00;;;24.72;50.17;101300.44;5033419;28;20200;-56
2023/06/20 02:32:35;;;;;;;12.57;11.33;;;22.00;73.90;;;24.71;49.99;101298.00;5032981;28;20198;-56
2023/06/20 02:35:06;;;;;;;11.50;10.47;;;22.00;73.90;;;24.74;50.50;101300.19;5032819;28;20749;-57
2023/06/20 02:37:36;;;;;;;12.93;11.63;;;22.00;74.10;;;24.75;50.45;101297.25;5049451;28;20198;-54
2023/06/20 02:40:07;;;;;;;12.43;11.23;;;22.00;74.10;;;24.78;50.38;101298.63;5053307;28;20196;-57
2023/06/20 02:42:34;;;;;;;12.33;11.23;;;22.00;73.90;;;24.77;50.07;101289.75;5052899;28;20229;-55
2023/06/20 02:45:02;;;;;;;13.47;12.03;;;22.00;73.80;;;24.80;50.21;101299.19;5052908;28;20209;-56
2023/06/20 02:47:46;;;;;;;14.07;12.47;;;22.10;73.90;;;24.76;50.19;101292.66;5037310;28;20236;-57
2023/06/20 02:50:20;;;;;;;13.57;12.13;;;22.10;73.80;;;24.75;49.76;101291.84;5033304;28;20233;-58
2023/06/20 02:52:52;;;;;;;14.27;12.67;;;22.00;73.60;;;24.75;49.61;101293.72;5032824;28;20237;-59
2023/06/20 02:55:34;;;;;;;12.93;11.63;;;22.00;73.50;;;24.68;49.79;101295.81;5033169;28;20241;-56
2023/06/20 02:58:12;;;;;;;14.13;12.73;;;22.00;73.50;;;24.66;50.07;101298.75;5049145;28;20224;-56
2023/06/20 03:00:45;;;;;;;13.53;12.20;;;21.90;73.60;;;24.66;49.63;101308.72;5052985;28;20189;-57
2023/06/20 03:03:17;;;;;;;12.03;10.93;;;21.90;73.70;;;24.63;50.02;101303.81;5052738;28;20179;-57
2023/06/20 03:05:46;;;;;;;13.47;12.13;;;21.90;73.80;;;24.62;49.79;101304.91;5052982;28;20253;-57
2023/06/20 03:08:17;;;;;;;13.03;11.83;;;21.90;73.90;;;24.63;50.09;101303.81;5052567;28;20300;-58
2023/06/20 03:10:48;;;;;;;12.40;11.20;;;21.90;74.00;;;24.63;50.32;101298.44;5052581;28;20189;-57
2023/06/20 03:13:16;;;;;;;12.87;11.60;;;21.90;74.10;;;24.68;49.84;101295.81;5051959;28;20306;-55
2023/06/20 03:15:43;;;;;;;13.10;11.80;;;21.90;74.00;;;24.68;50.11;101298.50;5052245;28;20690;-56
2023/06/20 03:18:11;;;;;;;12.67;11.53;;;21.90;73.80;;;24.70;49.97;101304.44;5052429;28;20194;-57
2023/06/20 03:20:39;;;;;;;14.17;12.87;;;22.00;73.90;;;24.72;49.86;101299.63;5051794;28;20666;-55
2023/06/20 03:23:05;;;;;;;12.73;11.47;;;22.00;73.70;;;24.73;50.13;101302.06;5052157;28;20221;-53
2023/06/20 03:25:32;;;;;;;14.07;12.63;;;22.00;73.60;;;24.73;49.63;101298.56;5052565;28;20206;-53
2023/06/20 03:28:01;;;;;;;14.10;12.60;;;22.00;73.60;;;24.74;49.50;101289.41;5043679;28;20187;-54
2023/06/20 03:30:28;;;;;;;14.57;13.10;;;22.00;73.70;;;24.75;49.59;101301.81;5032559;28;20229;-57
2023/06/20 03:32:55;;;;;;;14.67;13.27;;;22.00;73.40;;;24.74;49.21;101303.72;5034055;28;20532;-57
2023/06/20 03:35:22;;;;;;;13.10;11.80;;;22.00;73.40;;;24.72;49.29;101297.75;5036246;28;20207;-56
2023/06/20 03:37:49;;;;;;;12.80;11.50;;;22.00;73.50;;;24.72;49.91;101297.75;5036840;28;20195;-57
2023/06/20 03:40:16;;;;;;;12.00;10.97;;;22.00;73.70;;;24.74;49.81;101294.81;5036505;28;20190;-56
2023/06/20 03:42:43;;;;;;;14.43;12.57;;;22.00;73.60;;;24.76;49.72;101298.06;5050641;28;20667;-58
2023/06/20 03:45:12;;;;;;;13.83;12.60;;;22.00;73.40;;;24.76;49.24;101298.06;5055208;28;20224;-57
2023/06/20 03:47:39;;;;;;;13.93;12.57;;;22.00;73.30;;;24.76;49.75;101289.97;5056357;28;20306;-57
2023/06/20 03:50:07;;;;;;;13.47;12.07;;;22.00;73.20;;;24.76;49.83;101292.66;5055777;28;20257;-58
2023/06/20 03:52:33;;;;;;;13.47;12.17;;;22.00;73.40;;;24.79;49.17;101294.91;5056078;28;20194;-56
2023/06/20 03:55:00;;;;;;;15.70;12.83;;;22.00;73.40;;;24.82;49.33;101303.25;5054933;28;20296;-57
2023/06/20 03:57:27;;;;;;;13.17;11.63;;;22.00;73.20;;;24.84;49.03;101306.50;5055413;28;20268;-57
2023/06/20 03:59:54;;;;;;;13.73;12.50;;;22.00;73.20;;;24.88;49.60;101307.66;5053708;28;20182;-59
2023/06/20 04:02:23;;;;;;;13.57;12.27;;;22.10;73.10;;;24.90;49.39;101299.31;5055690;28;20204;-57
2023/06/20 04:04:50;;;;;;;13.67;12.37;;;22.10;73.00;;;24.91;48.87;101300.94;5055387;28;20214;-53
2023/06/20 04:07:18;;;;;;;13.07;11.77;;;22.10;72.90;;;24.93;49.57;101298.78;5055448;28;20268;-58
2023/06/20 04:09:45;;;;;;;14.83;12.60;;;22.10;73.00;;;24.97;48.83;101293.69;5055506;28;20193;-58
2023/06/20 04:12:12;;;;;;;14.00;12.70;;;22.10;72.90;;;25.00;48.82;101288.63;5055087;28;20200;-58
2023/06/20 04:14:39;;;;;;;13.00;11.70;;;22.20;72.70;;;25.02;49.01;101297.25;5055156;28;20224;-56
2023/06/20 04:17:07;;;;;;;14.57;13.17;;;22.20;72.70;;;25.03;48.78;101292.69;5040012;28;20547;-58
2023/06/20 04:19:36;;;;;;;13.60;11.77;;;22.20;72.50;;;25.03;49.10;101298.88;5034464;28;20281;-57
2023/06/20 04:22:03;;;;;;;11.83;10.70;;;22.20;72.50;;;25.05;48.66;101301.31;5035411;28;20186;-61
2023/06/20 04:24:30;;;;;;;14.27;12.80;;;22.20;73.30;;;25.05;48.39;101307.53;5034609;28;20705;-58
2023/06/20 04:26:57;;;;;;;14.40;13.00;;;22.20;72.40;;;25.06;48.21;101302.94;5035177;28;20385;-57
2023/06/20 04:29:29;;;;;;;13.70;12.40;;;22.20;72.20;;;25.06;48.70;101301.06;5035167;28;20191;-57
2023/06/20 04:31:56;;;;;;;15.53;13.93;;;22.20;72.20;;;25.08;48.29;101304.31;5035841;28;20273;-58
2023/06/20 04:34:23;;;;;;;13.23;12.03;;;22.20;72.20;;;25.08;48.36;101300.81;5034840;28;20210;-57
2023/06/20 04:36:52;;;;;;;13.90;12.50;;;22.20;72.20;;;25.07;48.83;101283.84;5035313;28;20209;-58
2023/06/20 04:39:18;;;;;;;14.17;12.77;;;22.20;72.20;;;25.07;48.86;101294.63;5046180;28;20499;-57
2023/06/20 04:41:45;;;;;;;13.13;11.83;;;22.20;72.20;;;25.09;48.16;101287.06;5054534;28;20193;-58
2023/06/20 04:44:12;;;;;;;16.73;14.43;;;22.20;72.30;;;25.08;48.78;101285.44;5053496;28;20194;-58
2023/06/20 04:46:39;;;;;;;17.07;12.97;;;22.30;72.30;;;25.08;48.62;101292.75;5054637;28;20186;-55
2023/06/20 04:49:06;;;;;;;13.30;12.10;;;22.20;72.30;;;25.09;48.97;101291.66;5036680;28;20217;-57
2023/06/20 04:51:33;;;;;;;14.10;12.70;;;22.20;72.30;;;25.07;48.91;101293.78;5034600;28;20216;-55
2023/06/20 04:54:01;;;;;;;12.23;10.93;;;22.20;72.40;;;25.08;48.96;101296.22;5034115;28;20312;-57
2023/06/20 04:56:28;;;;;;;13.83;12.53;;;22.20;72.40;;;25.12;48.50;101291.97;5037680;28;20228;-58
2023/06/20 04:58:58;;;;;;;12.47;11.27;;;22.30;72.70;;;25.18;48.53;101296.31;5054111;28;20783;-59
2023/06/20 05:01:25;;;;;;;12.53;11.13;;;22.30;72.60;;;25.24;48.95;101294.47;5054034;28;20208;-56
2023/06/20 05:03:53;;;;;;;15.17;13.77;;;22.30;72.50;;;25.29;48.67;101294.53;5044748;28;20273;-58
2023/06/20 05:06:20;;;;;;;13.87;12.57;;;22.30;72.50;;;25.31;48.77;101290.50;5047346;28;20217;-59
2023/06/20 05:08:47;;;;;;;13.27;11.97;;;22.40;72.50;;;25.36;48.69;101293.25;5054329;28;20718;-57
2023/06/20 05:11:15;;;;;;;13.87;12.57;;;22.40;72.40;;;25.43;48.03;101293.00;5054590;28;20610;-60
2023/06/20 05:13:42;;;;;;;14.27;12.63;;;22.50;72.40;;;25.47;48.13;101294.97;5053755;28;20218;-56
2023/06/20 05:16:09;;;;;;;12.77;11.47;;;22.50;72.30;;;25.51;47.73;101306.03;5054199;28;20206;-58
2023/06/20 05:18:36;;;;;;;16.53;11.97;;;22.50;72.10;;;25.51;48.42;101301.44;5053503;28;20190;-58
2023/06/20 05:21:03;;;;;;;13.87;12.47;;;22.60;72.00;;;25.51;48.37;101301.44;5034075;28;20285;-59
2023/06/20 05:23:30;;;;;;;13.07;11.87;;;22.60;71.90;;;25.58;47.77;101303.13;5033661;28;20282;-56
2023/06/20 05:26:00;;;;;;;15.10;13.70;;;22.70;72.00;;;25.60;48.32;101303.66;5033701;28;20214;-56
2023/06/20 05:28:28;;;;;;;13.80;12.50;;;22.70;72.00;;;25.61;48.46;101302.56;5033900;28;20190;-57
2023/06/20 05:30:56;;;;;;;13.63;12.33;;;22.80;72.00;;;25.65;48.32;101311.81;5033788;28;20226;-59
2023/06/20 05:33:22;;;;;;;12.43;11.27;;;22.80;71.80;;;25.67;47.96;101310.47;5033198;28;20667;-59
2023/06/20 05:35:49;;;;;;;12.70;11.40;;;22.80;71.70;;;25.72;48.52;101312.38;5036881;28;20212;-57
2023/06/20 05:38:16;;;;;;;13.97;12.70;;;22.90;71.80;;;25.76;48.23;101313.47;5033232;28;20193;-59
2023/06/20 05:40:43;;;;;;;11.83;10.60;;;22.90;71.70;;;25.83;47.65;101308.66;5040366;28;20202;-60
2023/06/20 05:43:10;;;;;;;11.93;10.70;;;23.00;71.70;;;25.91;47.57;101292.00;5053024;28;20288;-59
2023/06/20 05:45:39;;;;;;;12.40;11.17;;;23.00;71.60;;;26.00;48.03;101298.50;5053286;28;20546;-60
2023/06/20 05:48:10;;;;;;;14.80;12.07;;;23.00;71.40;;;26.03;47.74;101298.78;5052656;28;20247;-59
2023/06/20 05:50:37;;;;;;;13.47;12.10;;;23.10;71.20;;;26.06;47.61;101297.44;5050252;28;20596;-58
2023/06/20 05:53:04;;;;;;;12.07;10.97;;;23.20;71.00;;;26.06;47.47;101300.13;5047064;28;20718;-58
2023/06/20 05:55:31;;;;;;;12.87;11.77;;;23.20;70.70;;;26.10;46.85;101301.25;5041816;28;20690;-57
2023/06/20 05:57:58;;;;;;;12.00;10.90;;;23.30;70.60;;;26.10;47.34;101298.56;5051536;28;20268;-56
2023/06/20 06:00:25;;;;;;;12.27;11.10;;;23.30;70.50;;;26.13;47.19;101304.25;5044555;28;20316;-59
2023/06/20 06:02:54;;;;;;;11.43;10.53;;;23.30;70.40;;;26.17;46.65;101315.34;5051497;28;20247;-58
2023/06/20 06:05:21;;;;;;;12.43;11.13;;;23.40;70.30;;;26.21;46.52;101305.66;5040253;28;20246;-57
2023/06/20 06:07:48;;;;;;;12.60;11.37;;;23.40;70.10;;;26.29;47.21;101310.53;5033557;28;20197;-55
2023/06/20 06:10:16;;;;;;;11.67;10.47;;;23.50;70.20;;;26.36;46.57;101313.81;5032984;28;20588;-58
2023/06/20 06:12:43;;;;;;;19.83;11.20;;;23.50;70.10;;;26.42;46.88;101318.13;5046869;28;20189;-58
2023/06/20 06:15:13;;;;;;;12.77;11.33;;;23.60;70.10;;;26.49;46.97;101312.47;5052712;28;20249;-54
2023/06/20 06:17:40;;;;;;;11.10;10.00;;;23.60;70.00;;;26.54;46.85;101320.59;5052949;28;20220;-59
2023/06/20 06:20:12;;;;;;;11.90;10.67;;;23.70;69.90;;;26.60;46.70;101309.53;5052990;28;20196;-56
2023/06/20 06:22:39;;;;;;;16.50;14.83;;;23.80;69.90;;;26.70;46.13;101309.56;5052648;28;20186;-56
2023/06/20 06:25:07;;;;;;;13.67;12.27;;;23.80;69.70;;;26.83;45.80;101311.81;5034115;28;20285;-59
2023/06/20 06:27:34;;;;;;;12.93;10.90;;;23.90;69.70;;;26.94;45.53;101306.38;5032256;28;20214;-58
2023/06/20 06:30:01;;;;;;;11.40;10.27;;;24.00;69.50;;;27.03;46.00;101318.31;5032274;28;20550;-57
2023/06/20 06:32:28;;;;;;;11.67;10.53;;;24.10;69.30;;;27.12;45.68;101311.28;5049823;28;20515;-59
2023/06/20 06:34:59;;;;;;;11.40;10.20;;;24.10;68.90;;;27.22;45.25;101312.06;5051971;28;20241;-57
2023/06/20 06:37:29;;;;;;;27.33;24.57;;;24.20;68.70;;;27.32;45.27;101300.44;5052445;28;20182;-59
2023/06/20 06:39:59;;;;;;;23.47;21.10;;;24.30;68.60;;;27.42;44.86;101295.06;5044583;28;20195;-60
2023/06/20 06:42:26;;;;;;;12.43;10.53;;;24.40;68.40;;;27.55;44.46;101299.13;5053146;28;20634;-57
2023/06/20 06:44:54;;;;;;;12.40;10.07;;;24.50;68.20;;;27.62;44.33;101300.47;5051728;28;20373;-60
2023/06/20 06:47:21;;;;;;;10.27;9.13;;;24.60;67.80;;;27.68;44.57;101310.19;5032469;28;20324;-57
2023/06/20 06:49:48;;;;;;;12.00;10.60;;;24.70;67.60;;;27.81;43.92;101316.91;5032744;28;20226;-57
2023/06/20 06:52:15;;;;;;;10.83;9.83;;;24.80;67.40;;;27.89;43.65;101322.56;5032090;28;20218;-56
2023/06/20 06:54:43;;;;;;;10.13;9.13;;;24.90;67.80;;;28.00;43.85;101313.34;5032116;28;20313;-59
2023/06/20 06:57:10;;;;;;;11.63;9.73;;;25.00;66.90;;;28.10;43.77;101307.91;5050386;28;20198;-57
2023/06/20 06:59:37;;;;;;;11.30;10.20;;;25.10;66.60;;;28.24;43.64;101307.31;5052793;28;20198;-58
2023/06/20 07:02:05;;;;;;;10.63;9.47;;;25.20;66.60;;;28.36;43.21;101315.94;5052480;28;20198;-62
2023/06/20 07:04:33;;;;;;;10.37;8.57;;;25.30;66.20;;;28.42;43.27;101309.41;5052501;28;20646;-56
2023/06/20 07:07:00;;;;;;;8.30;7.60;;;25.40;66.20;;;28.47;43.14;101309.38;5052556;28;20194;-58
2023/06/20 07:09:27;;;;;;;10.23;9.23;;;25.40;66.00;;;28.50;43.00;101300.69;5056607;28;20290;-59
2023/06/20 07:11:55;;;;;;;8.97;8.17;;;25.50;65.90;;;28.52;43.02;101310.16;5056554;28;20561;-57
2023/06/20 07:14:23;;;;;;;11.27;8.33;;;25.50;65.60;;;28.53;43.21;101308.25;5049601;28;20213;-56
2023/06/20 07:16:50;;;;;;;10.60;9.07;;;25.60;65.60;;;28.55;43.22;101320.41;5056818;28;20193;-58
2023/06/20 07:19:30;;;;;;;10.73;8.40;;;25.60;65.50;;;28.59;43.38;101320.69;5055436;28;20585;-56
2023/06/20 07:21:58;;;;;;;9.97;9.10;;;25.70;65.50;;;28.71;43.46;101330.13;5056437;28;20269;-54
2023/06/20 07:24:25;;;;;;;9.57;8.63;;;25.70;65.50;;;28.86;42.85;101331.13;5037976;28;20198;-57
2023/06/20 07:26:52;;;;;;;8.80;8.00;;;25.80;65.40;;;28.96;42.47;101326.44;5054025;28;20667;-56
2023/06/20 07:29:20;;;;;;;11.27;8.73;;;25.90;65.30;;;29.04;42.36;101333.97;5036673;28;20633;-54
2023/06/20 07:31:47;;;;;;;10.63;9.63;;;26.00;64.90;;;28.95;42.53;101335.69;5038008;28;20687;-56
2023/06/20 07:34:14;;;;;;;10.33;9.37;;;26.00;64.50;;;28.89;42.59;101335.97;5036866;28;20225;-59
2023/06/20 07:36:41;;;;;;;9.83;9.03;;;26.00;64.30;;;28.91;42.92;101334.59;5037894;28;20190;-57
2023/06/20 07:39:08;;;;;;;9.53;8.70;;;26.00;64.80;;;28.92;43.48;101336.22;5037745;28;20274;-55
2023/06/20 07:41:35;;;;;;;10.30;9.30;;;26.10;65.30;;;28.75;43.74;101343.94;5052685;28;20224;-57
2023/06/20 07:44:04;;;;;;;10.50;9.40;;;26.00;65.60;;;28.59;44.09;101337.78;5057489;28;20204;-58
2023/06/20 07:46:33;;;;;;;10.00;9.03;;;26.00;65.80;;;28.55;44.41;101341.31;5059573;28;20217;-54
2023/06/20 07:49:00;;;;;;;9.40;8.50;;;26.00;65.90;;;28.50;44.45;101338.63;5059541;28;20190;-54
2023/06/20 07:51:31;;;;;;;10.40;9.30;;;26.00;66.10;;;28.42;44.74;101339.19;5060215;28;20600;-58
2023/06/20 07:53:58;;;;;;;11.07;10.07;;;25.90;66.30;;;28.39;44.88;101342.44;5061062;28;20174;-55
2023/06/20 07:56:25;;;;;;;11.73;10.60;;;25.90;66.60;;;28.27;45.11;101348.19;5060820;28;20287;-57
2023/06/20 07:58:52;;;;;;;12.00;10.57;;;25.70;67.00;;;28.13;45.56;101339.03;5059578;28;20272;-57
2023/06/20 08:01:19;;;;;;;11.93;10.83;;;25.70;67.50;;;28.01;46.22;101342.06;5056192;28;20276;-59
2023/06/20 08:03:47;;;;;;;12.70;11.50;;;25.60;68.20;;;27.83;47.07;101334.50;5053752;28;20198;-57
2023/06/20 08:06:15;;;;;;;12.70;11.47;;;25.50;69.70;;;27.77;48.00;101335.59;5055345;28;20345;-56
2023/06/20 08:08:42;;;;;;;12.30;10.50;;;25.40;71.10;;;27.69;48.73;101336.16;5055090;28;20229;-58
2023/06/20 08:11:09;;;;;;;12.37;11.20;;;25.40;71.90;;;27.59;49.37;101338.88;5055289;28;20225;-58
2023/06/20 08:13:36;;;;;;;14.53;11.43;;;25.20;72.80;;;27.49;49.46;101330.75;5054052;28;20190;-57
2023/06/20 08:16:03;;;;;;;15.17;12.50;;;25.20;72.70;;;27.32;50.57;101322.06;5055069;28;20263;-57
2023/06/20 08:18:30;;;;;;;14.47;13.10;;;25.10;74.40;;;27.17;51.25;101320.19;5054084;28;20190;-58
2023/06/20 08:20:59;;;;;;;15.93;13.23;;;24.90;74.90;;;27.04;51.62;101320.72;5054473;28;20194;-59
2023/06/20 08:23:26;;;;;;;13.93;12.60;;;24.80;75.80;;;26.96;52.33;101323.16;5054456;28;20655;-58
2023/06/20 08:25:57;;;;;;;14.23;12.90;;;24.70;76.30;;;26.86;52.62;101315.84;5054500;28;20214;-57
2023/06/20 08:28:24;;;;;;;12.07;10.97;;;24.60;76.70;;;26.89;52.86;101306.41;5054514;28;20257;-57
2023/06/20 08:30:52;;;;;;;11.83;10.70;;;24.50;77.10;;;26.97;52.07;101308.56;5054762;28;20197;-57
2023/06/20 08:33:20;;;;;;;13.20;12.00;;;24.50;77.50;;;27.10;52.31;101303.41;5054422;28;20201;-57
2023/06/20 08:35:47;;;;;;;13.73;12.53;;;24.50;77.90;;;27.22;52.25;101295.84;5054817;28;20245;-57
2023/06/20 08:38:16;;;;;;;13.77;12.57;;;24.50;78.40;;;27.35;52.54;101284.50;5046359;28;20225;-58
2023/06/20 08:40:43;;;;;;;15.03;13.73;;;24.60;78.90;;;27.44;52.39;101295.59;5041986;28;20248;-58
2023/06/20 08:43:15;;;;;;;13.27;12.17;;;24.60;79.20;;;27.40;52.28;101287.22;5041606;28;20733;-58
2023/06/20 08:45:42;;;;;;;14.03;12.73;;;24.70;78.70;;;27.33;52.24;101281.25;5034747;28;20226;-58
2023/06/20 08:48:09;;;;;;;14.50;13.00;;;24.70;78.20;;;27.29;51.86;101273.97;5034333;28;20190;-58
2023/06/20 08:50:37;;;;;;;14.40;13.20;;;24.70;77.70;;;27.26;51.46;101269.09;5034229;28;20277;-56
2023/06/20 08:53:07;;;;;;;16.13;14.57;;;24.60;77.40;;;27.31;51.80;101271.81;5033635;28;20277;-58
2023/06/20 08:55:36;;;;;;;14.87;13.57;;;24.60;77.90;;;27.38;51.86;101273.19;5033923;28;20221;-59
2023/06/20 08:58:08;;;;;;;14.20;13.00;;;24.70;78.20;;;27.43;51.51;101264.25;5048756;28;20206;-59
2023/06/20 09:00:38;;;;;;;14.13;12.83;;;24.70;78.00;;;27.50;51.61;101265.56;5054054;28;20170;-59
2023/06/20 09:03:05;;;;;;;13.47;12.20;;;24.70;77.80;;;27.61;51.70;101271.75;5053863;28;20264;-57
2023/06/20 09:05:40;;;;;;;16.23;14.80;;;24.80;77.80;;;27.68;51.00;101266.88;5053782;28;20210;-58
2023/06/20 09:08:07;;;;;;;15.73;14.30;;;24.80;77.50;;;27.70;50.98;101263.88;5053622;28;20621;-56
2023/06/20 09:10:36;;;;;;;14.07;12.73;;;24.90;77.70;;;27.71;51.33;101269.03;5053973;28;20221;-58
2023/06/20 09:13:04;;;;;;;13.07;11.70;;;24.90;77.60;;;27.80;51.51;101264.69;5052229;28;20186;-59
2023/06/20 09:15:33;;;;;;;17.40;13.67;;;25.00;77.90;;;27.89;51.40;101267.63;5039797;28;20216;-59
2023/06/20 09:18:01;;;;;;;17.27;15.67;;;25.10;78.30;;;27.96;50.97;101263.53;5034382;28;20260;-60
2023/06/20 09:20:31;;;;;;;14.63;13.23;;;25.10;77.40;;;27.92;50.46;101257.06;5044775;28;20251;-57
2023/06/20 09:22:59;;;;;;;14.70;13.23;;;25.10;76.20;;;27.98;50.82;101260.56;5053499;28;20240;-60
2023/06/20 09:25:28;;;;;;;16.10;14.40;;;25.20;76.70;;;28.03;50.28;101265.97;5054233;28;20312;-58
2023/06/20 09:27:57;;;;;;;14.10;12.83;;;25.20;76.70;;;28.11;50.38;101263.50;5053562;28;20206;-60
2023/06/20 09:30:30;;;;;;;14.90;13.53;;;25.30;76.60;;;28.14;50.27;101254.84;5049469;28;20194;-59
2023/06/20 09:33:03;;;;;;;14.70;13.40;;;25.30;76.70;;;28.25;50.04;101260.19;5033473;28;20178;-60
2023/06/20 09:35:31;;;;;;;14.73;13.33;;;25.40;76.40;;;28.32;49.88;101249.84;5053506;28;20217;-58
2023/06/20 09:38:04;;;;;;;15.13;13.83;;;25.50;76.00;;;28.35;49.78;101254.72;5053766;28;20547;-53
2023/06/20 09:40:41;;;;;;;13.40;12.30;;;25.50;75.90;;;28.39;49.76;101250.34;5054198;28;20216;-58
2023/06/20 09:43:10;;;;;;;15.23;13.87;;;25.60;75.80;;;28.42;49.39;101256.03;5053008;28;20567;-58
2023/06/20 09:45:37;;;;;;;14.23;12.47;;;25.60;74.90;;;28.38;49.16;101252.28;5053421;28;20222;-59
2023/06/20 09:48:07;;;;;;;15.63;14.23;;;25.60;74.70;;;28.36;49.09;101245.50;5053237;28;20297;-56
2023/06/20 09:50:37;;;;;;;14.57;12.63;;;25.60;74.30;;;28.37;49.14;101252.53;5053258;28;20293;-59
2023/06/20 09:53:16;;;;;;;16.27;14.87;;;25.70;74.50;;;28.32;48.94;101257.97;5068289;28;20257;-58
2023/06/20 09:55:43;;;;;;;15.83;14.53;;;25.70;73.70;;;28.33;48.80;101246.06;5053081;28;20349;-61
2023/06/20 09:58:16;;;;;;;13.13;12.00;;;25.70;73.60;;;28.42;48.69;101255.22;5052962;28;20194;-57
2023/06/20 10:00:44;;;;;;;12.60;11.50;;;25.70;73.60;;;28.59;48.58;101250.22;5053050;28;20204;-58
2023/06/20 10:03:12;;;;;;;13.17;12.07;;;25.80;74.50;;;28.73;47.85;101251.25;5052524;28;20596;-57
2023/06/20 10:05:42;;;;;;;12.63;11.50;;;25.80;72.60;;;28.82;47.33;101249.53;5053109;28;20224;-59
2023/06/20 10:08:10;;;;;;;12.13;10.43;;;26.00;72.40;;;28.94;47.27;101252.69;5053068;28;20668;-58